Time;durP1;ratioP1;P1;durP2;ratioP2;P2;SDS_P1;SDS_P2;PMS_P1;PMS_P2;Temp;Humidity;BMP_temperature;BMP_pressure;BME280_temperature;BME280_humidity;BME280_pressure;Samples;Min_cycle;Max_cycle;Signal;HPM_P1;HPM_P2
2022/04/29 00:02:10;;;;;;;;;;;9.30;98.40;;;;;;5035116;28;19931;-91
2022/04/29 00:04:39;;;;;;;;;;;9.70;98.40;;;;;;5034469;28;20035;-93
2022/04/29 00:07:19;;;;;;;;;;;9.60;98.50;;;;;;5013861;28;19929;-93
2022/04/29 00:09:50;;;;;;;;;;;9.70;98.10;;;;;;5019792;28;19932;-92
2022/04/29 00:12:25;;;;;;;;;;;9.60;98.10;;;;;;5030791;28;19925;-94
2022/04/29 00:14:55;;;;;;;;;;;9.70;98.30;;;;;;5064473;28;19925;-92
2022/04/29 00:17:28;;;;;;;;;;;9.70;98.50;;;;;;5029956;28;19928;-93
2022/04/29 00:19:57;;;;;;;;;;;9.60;98.30;;;;;;5030260;28;19944;-93
2022/04/29 00:22:28;;;;;;;;;;;9.60;99.00;;;;;;5030391;28;19925;-92
2022/04/29 00:24:59;;;;;;;;;;;9.60;99.10;;;;;;5030261;28;19936;-92
2022/04/29 00:27:30;;;;;;;;;;;9.60;99.10;;;;;;5047116;28;20299;-92
2022/04/29 00:30:03;;;;;;;;;;;9.70;99.10;;;;;;5031495;28;19928;-93
2022/04/29 00:32:36;;;;;;;;;;;9.50;99.50;;;;;;5041253;28;19936;-93
2022/04/29 00:35:11;;;;;;;;;;;9.50;99.30;;;;;;5011084;28;19929;-93
2022/04/29 00:37:44;;;;;;;;;;;9.70;99.10;;;;;;5026726;28;19925;-94
2022/04/29 00:40:15;;;;;;;;;;;9.60;99.80;;;;;;5013826;28;20125;-93
2022/04/29 00:42:46;;;;;;;;;;;9.40;99.80;;;;;;5038521;28;19925;-93
2022/04/29 00:45:19;;;;;;;;;;;11.90;99.90;;;;;;5032495;28;19952;-92
2022/04/29 00:47:54;;;;;;;;;;;9.40;99.60;;;;;;5063641;28;19936;-92
2022/04/29 00:50:36;;;;;;;;;;;9.30;99.90;;;;;;5032982;28;20303;-92
2022/04/29 00:53:11;;;;;;;;;;;9.30;99.90;;;;;;5031591;28;19929;-92
2022/04/29 00:55:40;;;;;;;;;;;9.30;99.90;;;;;;5011835;28;19936;-93
2022/04/29 00:58:15;;;;;;;;;;;9.20;99.90;;;;;;5029115;28;19948;-93
2022/04/29 01:00:48;;;;;;;;;;;9.20;99.90;;;;;;5033913;28;19929;-92
2022/04/29 01:03:20;;;;;;;;;;;9.20;99.90;;;;;;5049282;28;19924;-93
2022/04/29 01:05:48;;;;;;;;;;;9.20;99.90;;;;;;5059466;28;19928;-92
2022/04/29 01:08:28;;;;;;;;;;;9.10;99.90;;;;;;5044600;28;19921;-94
2022/04/29 01:10:59;;;;;;;;;;;9.70;99.90;;;;;;5018126;28;20359;-94
2022/04/29 01:13:28;;;;;;;;;;;9.10;99.90;;;;;;5032066;28;19925;-93
2022/04/29 01:15:59;;;;;;;;;;;9.10;99.90;;;;;;5038701;28;19934;-92
2022/04/29 01:18:29;;;;;;;;;;;10.10;99.90;;;;;;5052726;28;19932;-92
2022/04/29 01:21:03;;;;;;;;;;;9.30;99.90;;;;;;5016097;28;20338;-91
2022/04/29 01:23:37;;;;;;;;;;;9.50;99.90;;;;;;5049046;28;19928;-92
2022/04/29 01:26:05;;;;;;;;;;;10.20;99.90;;;;;;5037401;28;19925;-93
2022/04/29 01:28:35;;;;;;;;;;;9.10;99.90;;;;;;5029209;28;20243;-92
2022/04/29 01:31:21;;;;;;;;;;;9.00;99.90;;;;;;5028433;28;19925;-93
2022/04/29 01:33:53;;;;;;;;;;;9.00;99.90;;;;;;5012397;28;20590;-91
2022/04/29 01:36:22;;;;;;;;;;;9.00;99.90;;;;;;4998764;28;19931;-92
2022/04/29 01:38:51;;;;;;;;;;;9.10;99.90;;;;;;5026553;28;19940;-92
2022/04/29 01:41:21;;;;;;;;;;;9.00;99.90;;;;;;5004600;28;19931;-93
2022/04/29 01:43:51;;;;;;;;;;;9.00;99.90;;;;;;5030486;28;19928;-93
2022/04/29 01:46:21;;;;;;;;;;;8.90;99.90;;;;;;5038248;28;19925;-92
2022/04/29 01:49:05;;;;;;;;;;;8.90;99.90;;;;;;5054494;28;20031;-93
2022/04/29 01:51:40;;;;;;;;;;;8.90;99.90;;;;;;5042273;28;19924;-92
2022/04/29 01:54:39;;;;;;;;;;;8.70;99.90;;;;;;5033633;28;20281;-91
2022/04/29 01:57:09;;;;;;;;;;;8.90;99.90;;;;;;5047435;28;19925;-92
2022/04/29 01:59:40;;;;;;;;;;;8.80;99.90;;;;;;5030509;28;19925;-92
2022/04/29 02:02:43;;;;;;;;;;;8.80;99.90;;;;;;5036579;28;19936;-92
2022/04/29 02:05:14;;;;;;;;;;;9.00;99.90;;;;;;5014627;28;19925;-92
2022/04/29 02:07:46;;;;;;;;;;;8.70;99.90;;;;;;5028839;28;19925;-92
2022/04/29 02:10:16;;;;;;;;;;;8.70;99.90;;;;;;5002112;28;19929;-94
2022/04/29 02:12:49;;;;;;;;;;;8.60;99.90;;;;;;5023146;28;19925;-92
2022/04/29 02:15:40;;;;;;;;;;;8.50;99.90;;;;;;5028866;28;19924;-92
2022/04/29 02:18:11;;;;;;;;;;;8.40;99.90;;;;;;5042236;28;19928;-92
2022/04/29 02:20:39;;;;;;;;;;;8.40;99.90;;;;;;5026072;28;19931;-92
2022/04/29 02:23:09;;;;;;;;;;;8.50;99.90;;;;;;5019289;28;20376;-90
2022/04/29 02:25:38;;;;;;;;;;;8.40;99.90;;;;;;5018326;28;19925;-92
2022/04/29 02:28:07;;;;;;;;;;;8.30;99.90;;;;;;5022333;28;19932;-91
2022/04/29 02:30:36;;;;;;;;;;;8.30;99.90;;;;;;5021946;28;19925;-92
2022/04/29 02:33:07;;;;;;;;;;;8.70;99.90;;;;;;5016772;28;20300;-92
2022/04/29 02:35:37;;;;;;;;;;;8.20;99.90;;;;;;5004288;28;19932;-91
2022/04/29 02:38:07;;;;;;;;;;;8.20;99.90;;;;;;5023023;28;19928;-92
2022/04/29 02:40:35;;;;;;;;;;;8.20;99.90;;;;;;5022868;28;19928;-92
2022/04/29 02:43:04;;;;;;;;;;;8.10;99.90;;;;;;5006238;28;19924;-91
2022/04/29 02:45:32;;;;;;;;;;;7.60;99.90;;;;;;5008749;28;19925;-92
2022/04/29 02:48:00;;;;;;;;;;;8.00;99.90;;;;;;5024521;28;19927;-92
2022/04/29 02:50:30;;;;;;;;;;;8.00;99.90;;;;;;5023955;28;19925;-92
2022/04/29 02:53:04;;;;;;;;;;;7.40;99.90;;;;;;5042634;28;20296;-92
2022/04/29 02:55:31;;;;;;;;;;;7.90;99.90;;;;;;5029708;28;19925;-92
2022/04/29 02:58:15;;;;;;;;;;;7.90;99.90;;;;;;5021364;28;19933;-92
2022/04/29 03:00:44;;;;;;;;;;;7.90;99.90;;;;;;5019692;28;19940;-93
2022/04/29 03:03:13;;;;;;;;;;;7.80;99.90;;;;;;5007651;28;20300;-91
2022/04/29 03:05:43;;;;;;;;;;;7.80;99.90;;;;;;5036714;28;19925;-91
2022/04/29 03:11:08;;;;;;;;;;;9.00;99.90;;;;;;5843975;23;20272;-86
2022/04/29 03:13:36;;;;;;;;;;;7.70;99.90;;;;;;4592867;28;10000768;-86
2022/04/29 03:16:09;;;;;;;;;;;7.70;99.90;;;;;;4954250;28;19926;-87
2022/04/29 03:18:38;;;;;;;;;;;8.80;99.90;;;;;;4939334;28;20308;-86
2022/04/29 03:21:06;;;;;;;;;;;7.60;99.90;;;;;;4934237;28;20748;-85
2022/04/29 03:23:33;;;;;;;;;;;7.60;99.90;;;;;;4956269;28;19927;-86
2022/04/29 03:26:01;;;;;;;;;;;7.60;99.90;;;;;;4970674;28;20320;-85
2022/04/29 03:28:29;;;;;;;;;;;7.60;99.90;;;;;;4939325;28;19926;-85
2022/04/29 03:31:01;;;;;;;;;;;7.60;99.90;;;;;;4923785;28;19930;-86
2022/04/29 03:33:52;;;;;;;;;;;7.50;99.90;;;;;;4942765;28;19926;-87
2022/04/29 03:36:20;;;;;;;;;;;7.50;99.90;;;;;;4939541;28;19937;-86
2022/04/29 03:38:54;;;;;;;;;;;7.40;99.90;;;;;;4954528;28;19926;-86
2022/04/29 03:41:21;;;;;;;;;;;7.40;99.90;;;;;;4940117;28;19930;-85
2022/04/29 03:43:55;;;;;;;;;;;7.40;99.90;;;;;;4959680;28;19926;-86
2022/04/29 03:46:29;;;;;;;;;;;7.10;99.90;;;;;;4932830;28;19926;-86
2022/04/29 03:49:35;;;;;;;;;;;7.40;99.90;;;;;;4920569;29;19926;-85
2022/04/29 03:52:15;;;;;;;;;;;7.40;99.90;;;;;;4908690;29;19938;-85
2022/04/29 03:54:42;;;;;;;;;;;7.30;99.90;;;;;;4922341;29;20374;-86
2022/04/29 03:57:11;;;;;;;;;;;7.30;99.90;;;;;;4936817;29;20397;-86
2022/04/29 03:59:39;;;;;;;;;;;7.30;99.90;;;;;;4934217;29;19931;-85
2022/04/29 04:02:07;;;;;;;;;;;6.30;99.90;;;;;;4936155;28;19934;-87
2022/04/29 04:04:35;;;;;;;;;;;7.30;99.90;;;;;;4940201;28;20470;-86
2022/04/29 04:07:03;;;;;;;;;;;7.20;99.90;;;;;;4925870;28;20386;-86
2022/04/29 04:09:57;;;;;;;;;;;7.20;99.90;;;;;;4939613;28;19933;-86
2022/04/29 04:12:25;;;;;;;;;;;7.20;99.90;;;;;;4955214;28;19926;-85
2022/04/29 04:15:12;;;;;;;;;;;7.30;99.90;;;;;;4932357;28;20278;-86
2022/04/29 04:17:44;;;;;;;;;;;7.20;99.90;;;;;;4936596;28;19937;-86
2022/04/29 04:20:14;;;;;;;;;;;7.10;99.90;;;;;;4954091;28;19933;-85
2022/04/29 04:23:04;;;;;;;;;;;7.50;99.90;;;;;;4939503;28;19930;-86
2022/04/29 04:25:33;;;;;;;;;;;7.10;99.90;;;;;;4923834;28;19933;-85
2022/04/29 04:28:01;;;;;;;;;;;7.10;99.90;;;;;;4955202;28;20432;-85
2022/04/29 04:30:45;;;;;;;;;;;7.10;99.90;;;;;;4925740;28;19926;-87
2022/04/29 04:33:15;;;;;;;;;;;7.10;99.90;;;;;;4970149;28;20300;-86
2022/04/29 04:35:44;;;;;;;;;;;7.00;99.90;;;;;;4904723;29;19941;-85
2022/04/29 04:38:11;;;;;;;;;;;7.00;99.90;;;;;;4905098;28;19926;-86
2022/04/29 04:40:50;;;;;;;;;;;7.00;99.90;;;;;;4926228;28;19926;-85
2022/04/29 04:43:20;;;;;;;;;;;7.00;99.90;;;;;;4920824;29;20325;-86
2022/04/29 04:45:49;;;;;;;;;;;7.50;99.90;;;;;;4928347;28;19934;-85
2022/04/29 04:48:36;;;;;;;;;;;6.90;99.90;;;;;;4959377;28;19927;-85
2022/04/29 04:51:22;;;;;;;;;;;6.90;99.90;;;;;;4938524;29;19933;-86
2022/04/29 04:53:57;;;;;;;;;;;6.70;99.90;;;;;;4939236;29;19926;-86
2022/04/29 04:56:26;;;;;;;;;;;6.90;99.90;;;;;;4920501;29;19926;-86
2022/04/29 04:58:55;;;;;;;;;;;6.90;99.90;;;;;;4921120;29;19926;-87
2022/04/29 05:01:23;;;;;;;;;;;6.80;99.90;;;;;;4931191;28;20266;-86
2022/04/29 05:04:09;;;;;;;;;;;6.90;99.90;;;;;;4943049;28;19984;-85
2022/04/29 05:06:55;;;;;;;;;;;6.80;99.90;;;;;;4957148;28;20293;-86
2022/04/29 05:09:23;;;;;;;;;;;7.60;99.90;;;;;;4940823;28;19933;-86
2022/04/29 05:11:51;;;;;;;;;;;6.90;99.90;;;;;;4923626;28;19926;-87
2022/04/29 05:14:48;;;;;;;;;;;6.90;99.90;;;;;;4945591;28;20530;-86
2022/04/29 05:17:16;;;;;;;;;;;6.80;99.90;;;;;;4921388;29;19927;-86
2022/04/29 05:20:04;;;;;;;;;;;6.90;99.90;;;;;;4951330;28;19937;-85
2022/04/29 05:22:38;;;;;;;;;;;7.00;99.90;;;;;;4905997;29;19926;-86
2022/04/29 05:25:11;;;;;;;;;;;7.10;99.90;;;;;;4937114;29;19926;-86
2022/04/29 05:27:59;;;;;;;;;;;7.10;99.90;;;;;;4898112;29;19930;-85
2022/04/29 05:30:47;;;;;;;;;;;7.30;99.90;;;;;;4923969;29;19957;-86
2022/04/29 05:33:35;;;;;;;;;;;7.30;99.90;;;;;;4958938;28;19937;-85
2022/04/29 05:36:23;;;;;;;;;;;6.30;99.90;;;;;;4934890;28;20496;-87
2022/04/29 05:42:14;;;;;;;;;;;7.40;99.90;;;;;;4936472;29;20408;-86
2022/04/29 05:44:42;;;;;;;;;;;7.20;99.90;;;;;;4936823;29;20297;-86
2022/04/29 05:47:11;;;;;;;;;;;7.10;99.90;;;;;;4936954;28;19941;-87
2022/04/29 05:49:39;;;;;;;;;;;7.50;99.90;;;;;;4935606;28;19934;-86
2022/04/29 05:52:08;;;;;;;;;;;7.50;99.90;;;;;;4938300;28;19927;-87
2022/04/29 05:54:41;;;;;;;;;;;7.50;99.90;;;;;;4925572;28;20324;-86
2022/04/29 05:57:13;;;;;;;;;;;7.50;99.90;;;;;;4955885;28;19930;-86
2022/04/29 05:59:41;;;;;;;;;;;7.60;99.90;;;;;;4948030;29;19927;-86
2022/04/29 06:02:42;;;;;;;;;;;7.60;99.90;;;;;;4933028;29;19930;-85
2022/04/29 06:05:12;;;;;;;;;;;7.60;99.90;;;;;;4953644;28;19926;-86
2022/04/29 06:07:45;;;;;;;;;;;7.60;99.90;;;;;;4921198;28;19930;-85
2022/04/29 06:10:24;;;;;;;;;;;7.50;99.90;;;;;;4935632;28;19930;-86
2022/04/29 06:12:52;;;;;;;;;;;7.70;99.90;;;;;;4928607;29;19934;-87
2022/04/29 06:15:32;;;;;;;;;;;7.50;99.90;;;;;;4940902;28;19926;-85
2022/04/29 06:18:32;;;;;;;;;;;7.50;99.90;;;;;;4943900;29;19926;-86
2022/04/29 06:21:19;;;;;;;;;;;7.50;99.90;;;;;;4930269;29;19931;-87
2022/04/29 06:23:50;;;;;;;;;;;7.50;99.90;;;;;;4934872;29;19937;-85
2022/04/29 06:26:30;;;;;;;;;;;8.20;99.90;;;;;;4924758;28;19926;-87
2022/04/29 06:28:58;;;;;;;;;;;7.70;99.90;;;;;;4940269;28;20440;-87
2022/04/29 06:31:27;;;;;;;;;;;7.80;99.90;;;;;;4918584;28;19933;-87
2022/04/29 06:34:06;;;;;;;;;;;7.80;99.90;;;;;;4957179;28;19937;-87
2022/04/29 06:36:36;;;;;;;;;;;7.90;99.90;;;;;;4952040;28;20304;-87
2022/04/29 06:39:07;;;;;;;;;;;7.90;99.90;;;;;;4925567;28;20312;-86
2022/04/29 06:41:36;;;;;;;;;;;8.00;99.90;;;;;;4931230;28;20395;-87
2022/04/29 06:44:05;;;;;;;;;;;8.20;99.90;;;;;;4929586;28;19926;-89
2022/04/29 06:47:07;;;;;;;;;;;8.10;99.90;;;;;;4966706;28;19930;-87
2022/04/29 06:49:57;;;;;;;;;;;8.20;99.90;;;;;;4974475;28;19927;-88
2022/04/29 06:52:56;;;;;;;;;;;8.30;99.90;;;;;;4955706;28;19926;-86
2022/04/29 06:55:30;;;;;;;;;;;8.40;99.90;;;;;;4961451;28;19922;-88
2022/04/29 06:57:58;;;;;;;;;;;8.50;99.90;;;;;;4945053;28;20204;-88
2022/04/29 07:00:29;;;;;;;;;;;8.50;99.90;;;;;;4953399;28;19921;-88
2022/04/29 07:03:03;;;;;;;;;;;7.50;99.70;;;;;;4976177;28;19926;-88
2022/04/29 07:05:36;;;;;;;;;;;8.90;99.90;;;;;;4943905;28;19914;-88
2022/04/29 07:08:09;;;;;;;;;;;8.80;99.80;;;;;;4942600;28;19911;-88
2022/04/29 07:11:00;;;;;;;;;;;8.40;99.10;;;;;;4989212;28;19925;-88
2022/04/29 07:13:51;;;;;;;;;;;9.00;99.10;;;;;;4956553;28;19949;-88
2022/04/29 07:16:32;;;;;;;;;;;9.10;98.60;;;;;;4951345;28;19936;-87
2022/04/29 07:19:14;;;;;;;;;;;9.20;98.20;;;;;;4948029;28;19926;-88
2022/04/29 07:25:08;;;;;;;;;;;9.30;98.00;;;;;;4939983;29;20402;-89
2022/04/29 07:27:36;;;;;;;;;;;9.50;97.80;;;;;;4951510;29;20400;-90
2022/04/29 07:30:33;;;;;;;;;;;8.40;97.10;;;;;;4931983;29;20293;-89
2022/04/29 07:33:11;;;;;;;;;;;9.60;97.40;;;;;;4915566;29;19931;-89
2022/04/29 07:41:44;;;;;;;;;;;10.00;96.60;;;;;;4935834;28;19926;-89
2022/04/29 07:48:32;;;;;;;;;;;10.20;96.30;;;;;;4972143;28;19919;-88
2022/04/29 07:51:16;;;;;;;;;;;10.20;95.70;;;;;;4954183;28;19930;-88
2022/04/29 07:53:44;;;;;;;;;;;10.10;96.10;;;;;;4932982;28;19933;-89
2022/04/29 08:00:14;;;;;;;;;;;10.20;95.20;;;;;;4990467;28;19945;-89
2022/04/29 08:02:49;;;;;;;;;;;10.00;95.10;;;;;;4968023;28;19926;-88
2022/04/29 08:05:32;;;;;;;;;;;10.20;95.30;;;;;;4951664;28;19926;-87
2022/04/29 08:08:01;;;;;;;;;;;10.20;95.20;;;;;;4923626;28;19934;-88
2022/04/29 08:10:54;;;;;;;;;;;10.20;94.70;;;;;;4929878;29;19930;-90
2022/04/29 08:13:24;;;;;;;;;;;10.10;94.80;;;;;;4955872;28;19952;-88
2022/04/29 08:16:17;;;;;;;;;;;10.30;94.80;;;;;;4973505;28;19926;-88
2022/04/29 08:19:09;;;;;;;;;;;10.40;94.90;;;;;;4924648;29;20262;-88
2022/04/29 08:22:03;;;;;;;;;;;10.60;95.40;;;;;;4975382;28;19926;-89
2022/04/29 08:24:31;;;;;;;;;;;10.80;95.10;;;;;;4932013;28;19937;-89
2022/04/29 08:27:01;;;;;;;;;;;10.90;94.40;;;;;;4944695;28;20370;-88
2022/04/29 08:29:29;;;;;;;;;;;10.90;94.70;;;;;;4930470;28;19949;-89
2022/04/29 08:31:57;;;;;;;;;;;11.20;94.00;;;;;;4945284;28;19933;-88
2022/04/29 08:34:59;;;;;;;;;;;11.60;94.20;;;;;;4946177;28;19933;-88
2022/04/29 08:37:28;;;;;;;;;;;11.50;93.80;;;;;;4954680;28;19933;-88
2022/04/29 08:40:07;;;;;;;;;;;11.60;93.80;;;;;;4959282;28;20003;-89
2022/04/29 08:42:41;;;;;;;;;;;11.80;93.30;;;;;;4947826;28;19926;-88
2022/04/29 08:45:11;;;;;;;;;;;11.70;92.80;;;;;;4923933;28;19941;-88
2022/04/29 08:48:30;;;;;;;;;;;11.70;92.80;;;;;;4947062;28;19926;-88
2022/04/29 08:51:04;;;;;;;;;;;11.80;92.80;;;;;;4963241;28;20003;-88
2022/04/29 08:53:35;;;;;;;;;;;11.80;92.60;;;;;;4942736;28;19944;-88
2022/04/29 08:59:15;;;;;;;;;;;11.90;92.40;;;;;;4959781;29;19941;-89
2022/04/29 09:01:45;;;;;;;;;;;11.90;92.20;;;;;;4929334;29;19930;-90
2022/04/29 09:04:17;;;;;;;;;;;12.00;92.40;;;;;;4926710;29;19927;-89
2022/04/29 09:06:49;;;;;;;;;;;12.00;92.20;;;;;;4925698;29;19934;-88
2022/04/29 09:09:19;;;;;;;;;;;12.00;92.50;;;;;;4924167;29;19926;-88
2022/04/29 09:11:47;;;;;;;;;;;11.90;92.00;;;;;;4940779;29;19942;-89
2022/04/29 09:14:36;;;;;;;;;;;10.60;91.70;;;;;;4943723;29;19931;-88
2022/04/29 09:17:15;;;;;;;;;;;12.10;92.20;;;;;;4941510;29;19919;-90
2022/04/29 09:19:42;;;;;;;;;;;12.00;92.10;;;;;;4947474;28;19982;-89
2022/04/29 09:22:12;;;;;;;;;;;12.00;91.60;;;;;;4962070;28;19930;-90
2022/04/29 09:25:02;;;;;;;;;;;12.00;91.10;;;;;;4954584;28;19930;-89
2022/04/29 09:28:03;;;;;;;;;;;12.00;90.40;;;;;;4921301;28;19933;-88
2022/04/29 09:30:56;;;;;;;;;;;12.00;90.50;;;;;;4956893;28;19932;-88
2022/04/29 09:33:59;;;;;;;;;;;12.10;90.70;;;;;;4938716;28;19937;-88
2022/04/29 09:36:46;;;;;;;;;;;12.10;90.70;;;;;;4972499;28;19924;-89
2022/04/29 09:42:06;;;;;;;;;;;12.10;89.00;;;;;;4954021;28;19936;-88
2022/04/29 09:44:35;;;;;;;;;;;12.20;90.00;;;;;;4960314;28;19926;-88
2022/04/29 09:47:14;;;;;;;;;;;12.10;89.90;;;;;;4960833;28;19914;-89
2022/04/29 09:49:58;;;;;;;;;;;12.10;90.40;;;;;;4964520;28;19927;-89
2022/04/29 09:52:51;;;;;;;;;;;12.10;90.40;;;;;;4971232;28;19936;-89
2022/04/29 09:55:30;;;;;;;;;;;12.00;90.80;;;;;;4957170;29;19915;-88
2022/04/29 10:03:03;;;;;;;;;;;11.90;89.90;;;;;;4875498;29;20036;-88
2022/04/29 10:05:34;;;;;;;;;;;11.90;89.90;;;;;;4896976;29;20314;-89
2022/04/29 10:08:06;;;;;;;;;;;12.00;90.20;;;;;;4897177;29;19927;-88
2022/04/29 10:10:34;;;;;;;;;;;11.30;88.70;;;;;;4909851;29;19928;-89
2022/04/29 10:13:15;;;;;;;;;;;12.10;89.90;;;;;;4890195;29;19927;-88
2022/04/29 10:15:44;;;;;;;;;;;12.00;88.40;;;;;;4903863;29;20310;-89
2022/04/29 10:23:02;;;;;;;;;;;11.90;89.10;;;;;;4885543;29;19935;-89
2022/04/29 10:25:45;;;;;;;;;;;11.90;89.80;;;;;;4863923;29;19932;-89
2022/04/29 10:28:20;;;;;;;;;;;11.90;89.60;;;;;;4896091;29;19932;-88
2022/04/29 10:31:05;;;;;;;;;;;11.90;89.00;;;;;;4906949;29;19931;-88
2022/04/29 10:33:36;;;;;;;;;;;11.60;89.00;;;;;;4916271;29;19931;-88
2022/04/29 10:36:22;;;;;;;;;;;12.00;89.50;;;;;;4900509;29;19931;-89
2022/04/29 10:39:22;;;;;;;;;;;11.90;89.60;;;;;;4905938;29;19921;-89
2022/04/29 10:41:59;;;;;;;;;;;11.50;89.90;;;;;;4903543;29;19928;-88
2022/04/29 10:52:26;;;;;;;;;;;11.80;88.90;;;;;;4912302;29;19937;-88
2022/04/29 10:55:23;;;;;;;;;;;11.80;88.90;;;;;;4953378;29;19937;-88
2022/04/29 10:58:22;;;;;;;;;;;11.80;88.90;;;;;;4942661;29;19930;-89
2022/04/29 11:01:13;;;;;;;;;;;12.40;89.20;;;;;;4943585;28;19923;-89
2022/04/29 11:03:44;;;;;;;;;;;12.00;89.00;;;;;;4971561;28;19941;-89
2022/04/29 11:06:14;;;;;;;;;;;12.30;87.70;;;;;;4930183;29;19915;-89
2022/04/29 11:08:43;;;;;;;;;;;12.50;87.20;;;;;;4937677;29;19923;-90
2022/04/29 11:11:12;;;;;;;;;;;12.70;87.00;;;;;;4919476;28;19927;-90
2022/04/29 11:13:59;;;;;;;;;;;12.80;86.40;;;;;;4581387;29;10000574;-89
2022/04/29 11:16:56;;;;;;;;;;;13.00;85.30;;;;;;4947085;29;19921;-90
2022/04/29 11:19:45;;;;;;;;;;;13.10;84.60;;;;;;4952979;29;19931;-89
2022/04/29 11:25:05;;;;;;;;;;;13.20;84.90;;;;;;4949702;29;19960;-90
2022/04/29 11:27:37;;;;;;;;;;;13.20;84.30;;;;;;4927010;29;20349;-89
2022/04/29 11:30:14;;;;;;;;;;;13.20;84.10;;;;;;4909276;29;19935;-90
2022/04/29 11:32:44;;;;;;;;;;;13.20;84.10;;;;;;4948249;29;19926;-89
2022/04/29 11:35:12;;;;;;;;;;;13.10;84.70;;;;;;4939902;29;19934;-89
2022/04/29 11:37:39;;;;;;;;;;;13.20;84.80;;;;;;4926339;29;19938;-89
2022/04/29 11:40:08;;;;;;;;;;;13.30;83.90;;;;;;4927792;29;20282;-89
2022/04/29 11:42:36;;;;;;;;;;;13.30;84.40;;;;;;4924775;29;20581;-90
2022/04/29 11:45:04;;;;;;;;;;;13.30;84.50;;;;;;4922350;29;19927;-89
2022/04/29 11:47:33;;;;;;;;;;;13.30;84.70;;;;;;4940765;28;19927;-89
2022/04/29 11:50:02;;;;;;;;;;;13.40;84.90;;;;;;4918960;29;19941;-90
2022/04/29 11:52:32;;;;;;;;;;;13.40;84.20;;;;;;4940386;29;19949;-89
2022/04/29 11:54:59;;;;;;;;;;;13.60;84.80;;;;;;4938719;29;19934;-90
2022/04/29 11:57:33;;;;;;;;;;;13.90;84.90;;;;;;4937481;29;19941;-89
2022/04/29 12:00:21;;;;;;;;;;;13.50;85.00;;;;;;4948618;29;19937;-90
2022/04/29 12:02:50;;;;;;;;;;;13.40;84.90;;;;;;4915982;29;19934;-90
2022/04/29 12:05:26;;;;;;;;;;;13.40;84.90;;;;;;4929699;29;20037;-89
2022/04/29 12:07:57;;;;;;;;;;;13.30;84.70;;;;;;4910059;29;19927;-89
2022/04/29 12:10:45;;;;;;;;;;;13.40;85.40;;;;;;4925907;28;19926;-89
2022/04/29 12:13:12;;;;;;;;;;;13.40;85.00;;;;;;4941698;28;19934;-89
2022/04/29 12:15:42;;;;;;;;;;;13.40;85.50;;;;;;4938807;28;19934;-88
2022/04/29 12:18:14;;;;;;;;;;;13.40;85.10;;;;;;4953697;28;19926;-88
2022/04/29 12:20:58;;;;;;;;;;;13.40;85.50;;;;;;4938258;28;20389;-88
2022/04/29 12:23:32;;;;;;;;;;;13.40;85.10;;;;;;4954584;28;20400;-88
2022/04/29 12:26:03;;;;;;;;;;;13.50;85.60;;;;;;4951271;28;19933;-88
2022/04/29 12:28:31;;;;;;;;;;;13.20;85.20;;;;;;4941119;28;19941;-88
2022/04/29 12:37:06;;;;;;;;;;;13.50;85.30;;;;;;4972082;28;19934;-89
2022/04/29 12:39:50;;;;;;;;;;;13.50;85.60;;;;;;4956641;28;19956;-88
2022/04/29 12:42:29;;;;;;;;;;;13.50;85.90;;;;;;4955242;28;19934;-89
2022/04/29 12:45:08;;;;;;;;;;;13.50;85.90;;;;;;4959046;28;20416;-89
2022/04/29 12:48:02;;;;;;;;;;;13.60;85.70;;;;;;4945218;28;19945;-88
2022/04/29 12:50:38;;;;;;;;;;;13.10;85.20;;;;;;4946538;28;19930;-89
2022/04/29 12:53:12;;;;;;;;;;;13.60;85.20;;;;;;4985842;28;19926;-89
2022/04/29 12:55:56;;;;;;;;;;;13.60;85.60;;;;;;4968194;28;19930;-88
2022/04/29 12:58:28;;;;;;;;;;;13.50;85.40;;;;;;4982981;28;20025;-90
2022/04/29 13:00:56;;;;;;;;;;;13.50;85.90;;;;;;4978578;28;20404;-90
2022/04/29 13:03:47;;;;;;;;;;;13.50;85.90;;;;;;4951297;28;19926;-89
2022/04/29 13:06:34;;;;;;;;;;;13.50;86.40;;;;;;4942837;28;20313;-89
2022/04/29 13:09:03;;;;;;;;;;;13.40;86.20;;;;;;4962234;28;19930;-90
2022/04/29 13:11:32;;;;;;;;;;;13.40;86.20;;;;;;4943696;28;19933;-88
2022/04/29 13:14:05;;;;;;;;;;;13.30;86.60;;;;;;4929910;28;19930;-90
2022/04/29 13:16:34;;;;;;;;;;;13.50;87.00;;;;;;4945917;28;19927;-89
2022/04/29 13:19:04;;;;;;;;;;;12.60;86.20;;;;;;4973899;28;19937;-88
2022/04/29 13:21:32;;;;;;;;;;;13.10;87.70;;;;;;4970808;28;20382;-89
2022/04/29 13:24:02;;;;;;;;;;;13.20;87.20;;;;;;4954677;28;19930;-89
2022/04/29 13:26:52;;;;;;;;;;;12.20;86.10;;;;;;4942641;28;19933;-90
2022/04/29 13:29:29;;;;;;;;;;;13.20;86.60;;;;;;4948200;28;19930;-88
2022/04/29 13:31:58;;;;;;;;;;;13.10;86.90;;;;;;4964272;28;19914;-88
2022/04/29 13:34:26;;;;;;;;;;;13.00;87.00;;;;;;4981043;28;19936;-90
2022/04/29 13:37:00;;;;;;;;;;;13.00;87.00;;;;;;4998485;28;19910;-89
2022/04/29 13:39:35;;;;;;;;;;;12.90;87.00;;;;;;4982478;28;20514;-88
2022/04/29 13:42:13;;;;;;;;;;;13.50;88.30;;;;;;4948121;28;19935;-90
2022/04/29 13:44:46;;;;;;;;;;;13.10;87.40;;;;;;4938199;28;19926;-90
2022/04/29 13:47:24;;;;;;;;;;;12.90;87.50;;;;;;4947501;28;19926;-89
2022/04/29 13:49:53;;;;;;;;;;;13.20;87.90;;;;;;4967899;28;19934;-90
2022/04/29 13:55:42;;;;;;;;;;;12.80;87.70;;;;;;4960443;28;19930;-89
2022/04/29 13:58:12;;;;;;;;;;;12.80;88.00;;;;;;4947109;28;19926;-89
2022/04/29 14:00:43;;;;;;;;;;;12.80;87.80;;;;;;4941302;28;19926;-89
2022/04/29 14:03:11;;;;;;;;;;;12.80;87.70;;;;;;4923318;28;20456;-90
2022/04/29 14:05:40;;;;;;;;;;;12.80;88.10;;;;;;4945108;28;19930;-89
2022/04/29 14:08:10;;;;;;;;;;;12.80;88.30;;;;;;4931671;28;19930;-89
2022/04/29 14:10:38;;;;;;;;;;;12.80;88.20;;;;;;4951665;28;19930;-89
2022/04/29 14:13:08;;;;;;;;;;;12.80;88.40;;;;;;4932462;29;20686;-89
2022/04/29 14:15:36;;;;;;;;;;;12.80;88.10;;;;;;4934077;28;19930;-88
2022/04/29 14:18:06;;;;;;;;;;;12.80;87.50;;;;;;4939121;28;20383;-88
2022/04/29 14:20:33;;;;;;;;;;;12.90;87.60;;;;;;4957542;28;19930;-88
2022/04/29 14:23:01;;;;;;;;;;;12.90;88.10;;;;;;4957895;28;19930;-89
2022/04/29 14:25:29;;;;;;;;;;;13.00;87.80;;;;;;4925538;28;20334;-89
2022/04/29 14:27:59;;;;;;;;;;;12.90;87.80;;;;;;4939105;28;19927;-88
2022/04/29 14:30:27;;;;;;;;;;;12.90;87.30;;;;;;4939159;28;19938;-87
2022/04/29 14:32:54;;;;;;;;;;;13.10;88.00;;;;;;4935106;28;20370;-88
2022/04/29 14:35:23;;;;;;;;;;;13.00;88.40;;;;;;4933916;28;19931;-87
2022/04/29 14:37:52;;;;;;;;;;;13.10;88.40;;;;;;4943605;28;19926;-86
2022/04/29 14:40:19;;;;;;;;;;;13.20;88.10;;;;;;4936172;28;20317;-88
2022/04/29 14:42:47;;;;;;;;;;;13.30;88.00;;;;;;4932881;28;20312;-87
2022/04/29 14:45:15;;;;;;;;;;;13.40;87.10;;;;;;4933941;28;19949;-88
2022/04/29 14:47:43;;;;;;;;;;;13.80;87.20;;;;;;4936375;28;19933;-88
2022/04/29 14:50:11;;;;;;;;;;;13.70;87.20;;;;;;4937480;28;19930;-88
2022/04/29 14:52:40;;;;;;;;;;;13.70;86.50;;;;;;4954745;28;19926;-88
2022/04/29 14:55:09;;;;;;;;;;;13.80;85.80;;;;;;4936710;28;19934;-89
2022/04/29 14:57:39;;;;;;;;;;;13.80;85.10;;;;;;4937108;28;19926;-87
2022/04/29 15:00:07;;;;;;;;;;;14.00;85.60;;;;;;4938107;28;19937;-88
2022/04/29 15:02:35;;;;;;;;;;;14.10;84.50;;;;;;4931848;28;19930;-88
2022/04/29 15:05:04;;;;;;;;;;;14.00;84.40;;;;;;4917883;28;20258;-87
2022/04/29 15:07:34;;;;;;;;;;;14.30;84.30;;;;;;4934279;28;19945;-88
2022/04/29 15:15:38;;;;;;;;;;;14.60;83.90;;;;;;4933757;28;19930;-88
2022/04/29 15:18:07;;;;;;;;;;;14.70;84.00;;;;;;4919870;28;20390;-86
2022/04/29 15:20:35;;;;;;;;;;;14.70;83.90;;;;;;4950998;28;20316;-86
2022/04/29 15:23:04;;;;;;;;;;;14.70;83.30;;;;;;4904404;28;19934;-87
2022/04/29 15:25:33;;;;;;;;;;;14.70;83.30;;;;;;4953195;28;19933;-87
2022/04/29 15:28:01;;;;;;;;;;;14.60;83.80;;;;;;4950924;28;19956;-88
2022/04/29 15:30:47;;;;;;;;;;;14.80;83.90;;;;;;4944181;28;19926;-85
2022/04/29 15:33:21;;;;;;;;;;;14.40;83.20;;;;;;4950054;28;19926;-87
2022/04/29 15:35:51;;;;;;;;;;;14.30;83.40;;;;;;4949078;28;19920;-89
2022/04/29 15:38:19;;;;;;;;;;;14.20;83.90;;;;;;4971366;28;19934;-88
2022/04/29 15:40:47;;;;;;;;;;;13.90;84.10;;;;;;4950745;28;19927;-87
2022/04/29 15:43:22;;;;;;;;;;;13.90;83.90;;;;;;4968919;28;19937;-88
2022/04/29 15:45:51;;;;;;;;;;;13.90;84.40;;;;;;4971804;28;20098;-89
2022/04/29 15:48:23;;;;;;;;;;;13.70;84.90;;;;;;4969833;28;19936;-88
2022/04/29 15:50:52;;;;;;;;;;;13.50;85.90;;;;;;4951259;28;20423;-89
2022/04/29 15:53:21;;;;;;;;;;;13.40;86.30;;;;;;4941758;28;19941;-88
2022/04/29 15:55:52;;;;;;;;;;;13.20;86.60;;;;;;4937403;28;19934;-88
2022/04/29 15:58:21;;;;;;;;;;;13.10;86.80;;;;;;4954901;28;20744;-88
2022/04/29 16:00:50;;;;;;;;;;;13.00;87.60;;;;;;4938353;28;20317;-87
2022/04/29 16:03:18;;;;;;;;;;;12.80;87.50;;;;;;4933729;28;20632;-88
2022/04/29 16:05:46;;;;;;;;;;;12.10;87.80;;;;;;4914768;28;19930;-87
2022/04/29 16:08:14;;;;;;;;;;;12.60;87.90;;;;;;4575785;28;10000399;-88
2022/04/29 16:10:42;;;;;;;;;;;12.50;88.00;;;;;;4946640;28;19926;-88
2022/04/29 16:13:10;;;;;;;;;;;12.50;86.90;;;;;;4915734;29;19930;-87